createdAt,value
2022-08-25T00:01:56.932Z,3.77
2022-08-25T00:04:26.071Z,2.80
2022-08-25T00:07:00.665Z,3.27
2022-08-25T00:09:32.129Z,3.47
2022-08-25T00:12:00.412Z,2.43
2022-08-25T00:14:31.728Z,4.57
2022-08-25T00:17:01.195Z,2.33
2022-08-25T00:19:32.787Z,3.03
2022-08-25T00:22:01.875Z,3.30
2022-08-25T00:24:30.621Z,2.83
2022-08-25T00:27:00.369Z,3.37
2022-08-25T00:29:29.672Z,3.80
2022-08-25T00:31:58.349Z,3.80
2022-08-25T00:34:31.548Z,3.30
2022-08-25T00:36:59.635Z,2.30
2022-08-25T00:39:28.255Z,2.80
2022-08-25T00:41:58.432Z,3.20
2022-08-25T00:44:29.144Z,2.93
2022-08-25T00:47:00.744Z,4.00
2022-08-25T00:49:33.581Z,3.90
2022-08-25T00:52:04.669Z,3.73
2022-08-25T00:54:39.115Z,4.53
2022-08-25T00:57:10.099Z,4.73
2022-08-25T00:59:38.496Z,4.37
2022-08-25T01:02:13.946Z,3.07
2022-08-25T01:04:49.141Z,2.77
2022-08-25T01:07:19.782Z,2.77
2022-08-25T01:09:50.973Z,3.97
2022-08-25T01:12:19.345Z,4.00
2022-08-25T01:14:47.645Z,3.03
2022-08-25T01:17:16.102Z,3.40
2022-08-25T01:19:45.627Z,4.40
2022-08-25T01:22:15.095Z,2.97
2022-08-25T01:24:48.228Z,4.30
2022-08-25T01:27:16.406Z,3.50
2022-08-25T01:29:44.523Z,3.83
2022-08-25T01:32:15.218Z,3.03
2022-08-25T01:34:46.136Z,2.73
2022-08-25T01:37:16.919Z,3.50
2022-08-25T01:39:45.240Z,3.10
2022-08-25T01:42:33.968Z,3.23
2022-08-25T01:45:02.109Z,4.13
2022-08-25T01:47:32.019Z,4.07
2022-08-25T01:50:00.372Z,2.47
2022-08-25T01:52:38.154Z,3.60
2022-08-25T01:55:07.260Z,2.73
2022-08-25T01:57:35.327Z,3.07
2022-08-25T02:00:03.502Z,2.50
2022-08-25T02:02:42.485Z,3.07
2022-08-25T02:05:11.103Z,3.33
2022-08-25T02:07:40.512Z,2.60
2022-08-25T02:10:09.291Z,3.43
2022-08-25T02:12:37.444Z,3.20
2022-08-25T02:15:07.346Z,4.00
2022-08-25T02:17:36.675Z,3.27
2022-08-25T02:20:05.971Z,3.47
2022-08-25T02:22:34.104Z,2.10
2022-08-25T02:25:03.589Z,3.73
2022-08-25T02:27:31.675Z,3.50
2022-08-25T02:29:59.741Z,3.87
2022-08-25T02:32:30.143Z,3.20
2022-08-25T02:34:58.385Z,2.93
2022-08-25T02:37:26.401Z,2.80
2022-08-25T02:39:54.578Z,3.10
2022-08-25T02:42:24.549Z,2.97
2022-08-25T02:44:52.652Z,4.30
2022-08-25T02:47:26.834Z,2.90
2022-08-25T02:49:56.020Z,3.63
2022-08-25T02:52:25.366Z,3.63
2022-08-25T02:54:53.431Z,3.73
2022-08-25T02:57:22.921Z,5.03
2022-08-25T02:59:51.744Z,3.00
2022-08-25T03:02:19.870Z,5.27
2022-08-25T03:04:48.319Z,4.70
2022-08-25T03:07:17.700Z,3.87
2022-08-25T03:09:46.820Z,4.97
2022-08-25T03:12:15.141Z,4.70
2022-08-25T03:14:44.588Z,5.10
2022-08-25T03:17:12.901Z,4.87
2022-08-25T03:19:41.051Z,3.50
2022-08-25T03:22:09.118Z,3.40
2022-08-25T03:24:37.323Z,3.80
2022-08-25T03:27:05.032Z,5.17
2022-08-25T03:29:34.384Z,6.57
2022-08-25T03:32:04.505Z,4.10
2022-08-25T03:34:33.547Z,6.07
2022-08-25T03:37:02.349Z,4.60
2022-08-25T03:39:30.462Z,4.80
2022-08-25T03:41:58.550Z,3.30
2022-08-25T03:44:26.725Z,5.27
2022-08-25T03:46:54.795Z,5.30
2022-08-25T03:49:25.505Z,5.10
2022-08-25T03:51:55.863Z,4.37
2022-08-25T03:54:26.992Z,4.83
2022-08-25T03:56:55.613Z,6.40
2022-08-25T03:59:23.911Z,4.77
2022-08-25T04:01:55.219Z,4.27
2022-08-25T04:04:25.079Z,4.93
2022-08-25T04:06:53.924Z,5.37
2022-08-25T04:09:22.412Z,4.97
2022-08-25T04:11:53.010Z,6.40
2022-08-25T04:14:22.265Z,6.13
2022-08-25T04:16:50.902Z,4.93
2022-08-25T04:19:19.040Z,4.30
2022-08-25T04:21:48.451Z,5.57
2022-08-25T04:24:16.911Z,5.80
2022-08-25T04:26:47.299Z,4.07
2022-08-25T04:29:17.157Z,4.47
2022-08-25T04:31:48.688Z,5.10
2022-08-25T04:34:28.905Z,5.57
2022-08-25T04:37:01.575Z,3.90
2022-08-25T04:39:29.961Z,4.07
2022-08-25T04:41:58.067Z,5.70
2022-08-25T04:44:26.466Z,3.93
2022-08-25T04:46:54.551Z,5.20
2022-08-25T04:49:22.621Z,7.83
2022-08-25T04:51:50.713Z,5.33
2022-08-25T04:54:22.149Z,6.03
2022-08-25T04:56:54.221Z,5.00
2022-08-25T04:59:24.695Z,5.27
2022-08-25T05:01:58.777Z,5.13
2022-08-25T05:04:28.603Z,4.70
2022-08-25T05:07:00.249Z,6.40
2022-08-25T05:09:32.519Z,7.40
2022-08-25T05:12:02.237Z,4.90
2022-08-25T05:14:31.467Z,5.40
2022-08-25T05:17:00.540Z,4.90
2022-08-25T05:19:28.673Z,3.70
2022-08-25T05:21:57.782Z,5.67
2022-08-25T05:24:26.603Z,4.83
2022-08-25T05:26:56.043Z,3.97
2022-08-25T05:29:24.108Z,5.73
2022-08-25T05:31:54.789Z,4.20
2022-08-25T05:34:23.131Z,5.03
2022-08-25T05:36:51.639Z,6.10
2022-08-25T05:39:19.851Z,4.83
2022-08-25T05:41:47.870Z,4.13
2022-08-25T05:44:20.859Z,3.63
2022-08-25T05:46:49.815Z,7.40
2022-08-25T05:49:17.982Z,4.90
2022-08-25T05:51:45.983Z,4.50
2022-08-25T05:54:14.007Z,6.60
2022-08-25T05:56:42.032Z,5.80
2022-08-25T05:59:10.614Z,5.20
2022-08-25T06:02:05.772Z,5.87
2022-08-25T06:04:33.872Z,5.50
2022-08-25T06:07:02.049Z,4.50
2022-08-25T06:09:33.086Z,8.00
2022-08-25T06:12:01.241Z,6.70
2022-08-25T06:14:29.435Z,5.43
2022-08-25T06:17:00.417Z,4.97
2022-08-25T06:19:28.878Z,8.50
2022-08-25T06:21:58.366Z,4.90
2022-08-25T06:24:27.174Z,10.40
2022-08-25T06:26:55.372Z,5.93
2022-08-25T06:29:23.534Z,7.03
2022-08-25T06:31:51.930Z,7.83
2022-08-25T06:34:23.937Z,4.50
2022-08-25T06:36:53.049Z,6.40
2022-08-25T06:39:24.162Z,10.00
2022-08-25T06:41:56.514Z,8.80
2022-08-25T06:44:28.234Z,5.57
2022-08-25T06:46:56.628Z,7.27
2022-08-25T06:49:30.930Z,5.27
2022-08-25T06:52:01.182Z,5.83
2022-08-25T06:54:29.539Z,5.77
2022-08-25T06:56:57.642Z,6.00
2022-08-25T06:59:26.251Z,7.00
2022-08-25T07:02:03.629Z,5.57
2022-08-25T07:04:33.559Z,6.23
2022-08-25T07:07:02.005Z,6.50
2022-08-25T07:09:30.093Z,6.00
2022-08-25T07:11:58.403Z,6.83
2022-08-25T07:14:26.465Z,7.50
2022-08-25T07:16:54.502Z,6.57
2022-08-25T07:19:22.538Z,8.53
2022-08-25T07:21:54.302Z,7.73
2022-08-25T07:24:23.545Z,10.53
2022-08-25T07:26:52.012Z,7.13
2022-08-25T07:29:31.642Z,7.97
2022-08-25T07:32:00.743Z,6.50
2022-08-25T07:34:46.119Z,11.17
2022-08-25T07:37:47.523Z,8.53
2022-08-25T07:40:15.413Z,8.50
2022-08-25T07:42:44.125Z,7.73
2022-08-25T07:45:13.595Z,7.27
2022-08-25T07:47:43.863Z,6.07
2022-08-25T07:50:15.190Z,9.57
2022-08-25T07:52:52.156Z,9.37
2022-08-25T07:55:23.778Z,8.07
2022-08-25T07:57:55.449Z,6.50
2022-08-25T08:00:27.695Z,8.23
2022-08-25T08:02:56.270Z,8.03
2022-08-25T08:05:24.634Z,6.03
2022-08-25T08:07:54.917Z,8.10
2022-08-25T08:13:16.512Z,8.63
2022-08-25T08:15:47.084Z,8.47
2022-08-25T08:18:15.926Z,7.50
2022-08-25T08:20:45.713Z,8.73
2022-08-25T08:23:18.178Z,7.77
2022-08-25T08:25:46.339Z,9.33
2022-08-25T08:28:14.465Z,8.23
2022-08-25T08:30:52.881Z,4.03
2022-08-25T08:33:22.979Z,7.30
2022-08-25T08:35:59.108Z,9.47
2022-08-25T08:38:29.163Z,8.20
2022-08-25T08:41:25.152Z,6.60
2022-08-25T08:46:48.104Z,6.97
2022-08-25T08:49:26.774Z,6.50
2022-08-25T08:52:02.702Z,7.30
2022-08-25T08:54:38.235Z,4.73
2022-08-25T08:57:16.650Z,8.40
2022-08-25T08:59:52.808Z,6.67
2022-08-25T09:02:39.539Z,6.87
2022-08-25T09:05:20.926Z,8.67
2022-08-25T09:07:54.779Z,5.40
2022-08-25T09:10:27.454Z,7.30
2022-08-25T09:13:11.995Z,4.67
2022-08-25T09:16:04.124Z,7.80
2022-08-25T09:18:41.290Z,7.80
2022-08-25T09:21:32.135Z,8.57
2022-08-25T09:24:21.073Z,7.50
2022-08-25T09:27:04.052Z,7.97
2022-08-25T09:29:56.783Z,7.37
2022-08-25T09:32:31.560Z,6.17
2022-08-25T09:35:01.871Z,7.67
2022-08-25T09:37:30.220Z,7.00
2022-08-25T09:40:00.587Z,7.93
2022-08-25T09:42:57.726Z,6.77
2022-08-25T09:45:42.265Z,8.10
2022-08-25T09:48:39.733Z,7.50
2022-08-25T09:51:19.919Z,6.10
2022-08-25T09:53:54.853Z,7.03
2022-08-25T09:56:27.598Z,7.50
2022-08-25T09:59:03.059Z,6.23
2022-08-25T10:01:34.612Z,6.97
2022-08-25T10:04:05.536Z,8.47
2022-08-25T10:06:43.636Z,7.20
2022-08-25T10:09:24.085Z,6.50
2022-08-25T10:11:52.728Z,7.50
2022-08-25T10:14:44.338Z,5.97
2022-08-25T10:17:17.217Z,6.30
2022-08-25T10:19:45.435Z,7.57
2022-08-25T10:22:24.928Z,5.10
2022-08-25T10:24:55.610Z,4.73
2022-08-25T10:27:33.294Z,5.20
2022-08-25T10:30:15.287Z,6.47
2022-08-25T10:33:05.458Z,5.73
2022-08-25T10:35:42.959Z,6.07
2022-08-25T10:38:27.189Z,5.97
2022-08-25T10:41:04.998Z,4.67
2022-08-25T10:43:39.793Z,3.77
2022-08-25T10:46:16.120Z,5.47
2022-08-25T10:49:00.335Z,6.03
2022-08-25T10:51:47.840Z,4.30
2022-08-25T10:54:37.659Z,4.30
2022-08-25T10:57:17.347Z,4.63
2022-08-25T10:59:53.415Z,4.57
2022-08-25T11:03:11.905Z,5.13
2022-08-25T11:05:46.665Z,3.80
2022-08-25T11:08:21.516Z,4.73
2022-08-25T11:10:54.056Z,4.00
2022-08-25T11:13:39.176Z,3.50
2022-08-25T11:16:17.522Z,4.40
2022-08-25T11:19:00.498Z,5.10
2022-08-25T11:21:40.671Z,4.90
2022-08-25T11:24:24.004Z,3.70
2022-08-25T11:26:56.793Z,3.60
2022-08-25T11:29:30.979Z,3.57
2022-08-25T11:32:01.195Z,2.63
2022-08-25T11:34:33.515Z,3.00
2022-08-25T11:37:11.991Z,3.90
2022-08-25T11:40:18.849Z,4.87
2022-08-25T11:43:00.233Z,4.47
2022-08-25T11:45:54.286Z,4.73
2022-08-25T11:48:44.132Z,4.23
2022-08-25T11:51:30.859Z,5.10
2022-08-25T11:54:18.581Z,5.67
2022-08-25T11:56:54.456Z,6.00
2022-08-25T11:59:56.254Z,3.57
2022-08-25T12:02:34.939Z,4.80
2022-08-25T12:05:06.340Z,3.90
2022-08-25T12:08:19.247Z,4.10
2022-08-25T12:11:01.428Z,4.67
2022-08-25T12:13:47.602Z,3.67
2022-08-25T12:16:41.608Z,4.50
2022-08-25T12:19:30.428Z,3.80
2022-08-25T12:22:38.367Z,4.30
2022-08-25T12:25:15.429Z,3.43
2022-08-25T12:27:54.853Z,3.80
2022-08-25T12:30:27.515Z,5.23
2022-08-25T12:33:08.948Z,3.27
2022-08-25T12:35:41.885Z,4.80
2022-08-25T12:38:13.970Z,5.33
2022-08-25T12:41:00.210Z,4.27
2022-08-25T12:43:37.316Z,4.20
2022-08-25T12:46:36.045Z,2.90
2022-08-25T12:49:06.597Z,2.90
2022-08-25T12:51:59.230Z,3.30
2022-08-25T12:54:40.391Z,2.93
2022-08-25T12:57:29.938Z,5.03
2022-08-25T13:00:16.964Z,3.03
2022-08-25T13:03:19.149Z,4.23
2022-08-25T13:06:33.966Z,4.60
2022-08-25T13:10:01.111Z,3.50
2022-08-25T13:12:34.977Z,3.93
2022-08-25T13:15:05.176Z,4.20
2022-08-25T13:17:36.878Z,3.87
2022-08-25T13:20:20.203Z,3.50
2022-08-25T13:23:00.155Z,3.70
2022-08-25T13:25:33.239Z,5.67
2022-08-25T13:28:05.165Z,3.97
2022-08-25T13:30:37.156Z,4.60
2022-08-25T13:33:20.013Z,4.43
2022-08-25T13:35:52.299Z,3.87
2022-08-25T13:38:20.375Z,4.03
2022-08-25T13:40:49.123Z,4.10
2022-08-25T13:43:17.294Z,5.77
2022-08-25T13:45:52.333Z,4.93
2022-08-25T13:48:34.007Z,3.80
2022-08-25T13:51:10.079Z,4.47
2022-08-25T13:53:39.721Z,4.33
2022-08-25T13:56:08.721Z,3.83
2022-08-25T13:58:44.830Z,4.17
2022-08-25T14:01:47.882Z,3.93
2022-08-25T14:04:33.042Z,2.80
2022-08-25T14:07:13.238Z,3.30
2022-08-25T14:09:47.073Z,4.43
2022-08-25T14:12:46.490Z,4.73
2022-08-25T14:15:33.378Z,2.93
2022-08-25T14:18:06.561Z,3.10
2022-08-25T14:20:36.514Z,4.03
2022-08-25T14:23:10.094Z,4.80
2022-08-25T14:25:40.390Z,3.07
2022-08-25T14:28:14.032Z,3.80
2022-08-25T14:30:46.271Z,4.30
2022-08-25T14:33:17.814Z,4.60
2022-08-25T14:35:50.270Z,3.67
2022-08-25T14:38:20.764Z,3.80
2022-08-25T14:40:50.139Z,3.77
2022-08-25T14:43:23.849Z,3.80
2022-08-25T14:45:53.688Z,3.50
2022-08-25T14:48:27.803Z,3.20
2022-08-25T14:50:57.771Z,3.70
2022-08-25T14:53:26.251Z,3.33
2022-08-25T14:55:59.205Z,5.20
2022-08-25T14:58:33.835Z,4.80
2022-08-25T15:01:04.395Z,4.40
2022-08-25T15:03:39.187Z,2.97
2022-08-25T15:06:07.714Z,3.20
2022-08-25T15:08:56.935Z,5.80
2022-08-25T15:11:28.491Z,4.30
2022-08-25T15:13:57.242Z,3.73
2022-08-25T15:16:34.043Z,5.63
2022-08-25T15:19:07.114Z,4.97
2022-08-25T15:21:36.781Z,3.40
2022-08-25T15:24:05.970Z,5.43
2022-08-25T15:26:40.041Z,3.70
2022-08-25T15:29:08.378Z,4.93
2022-08-25T15:31:38.938Z,4.00
2022-08-25T15:34:11.837Z,2.73
2022-08-25T15:36:41.547Z,4.40
2022-08-25T15:39:11.039Z,4.80
2022-08-25T15:41:40.007Z,4.50
2022-08-25T15:44:12.588Z,4.07
2022-08-25T15:46:42.532Z,4.60
2022-08-25T15:49:24.041Z,3.40
2022-08-25T15:51:54.412Z,4.77
2022-08-25T15:54:23.090Z,3.80
2022-08-25T15:56:51.701Z,4.50
2022-08-25T15:59:22.855Z,3.93
2022-08-25T16:01:54.651Z,5.53
2022-08-25T16:04:26.377Z,3.27
2022-08-25T16:06:55.669Z,3.10
2022-08-25T16:09:25.978Z,4.47
2022-08-25T16:11:58.973Z,3.63
2022-08-25T16:14:30.887Z,3.73
2022-08-25T16:17:02.049Z,4.07
2022-08-25T16:19:31.556Z,3.97
2022-08-25T16:22:00.117Z,4.70
2022-08-25T16:24:28.635Z,4.00
2022-08-25T16:27:11.019Z,4.13
2022-08-25T16:29:40.885Z,3.30
2022-08-25T16:32:10.821Z,3.07
2022-08-25T16:34:40.727Z,3.73
2022-08-25T16:37:09.630Z,3.23
2022-08-25T16:39:39.971Z,3.20
2022-08-25T16:42:09.481Z,3.77
2022-08-25T16:44:40.038Z,3.90
2022-08-25T16:47:09.137Z,4.17
2022-08-25T16:49:38.030Z,2.50
2022-08-25T16:52:28.260Z,3.73
2022-08-25T16:55:15.281Z,4.20
2022-08-25T16:57:47.751Z,4.43
2022-08-25T17:00:19.118Z,2.93
2022-08-25T17:02:47.746Z,3.03
2022-08-25T17:05:16.838Z,2.90
2022-08-25T17:08:08.694Z,3.20
2022-08-25T17:10:38.115Z,3.60
2022-08-25T17:13:07.168Z,3.20
2022-08-25T17:15:35.393Z,4.63
2022-08-25T17:18:03.488Z,3.30
2022-08-25T17:20:32.739Z,3.00
2022-08-25T17:23:02.306Z,4.90
2022-08-25T17:25:43.122Z,2.97
2022-08-25T17:28:12.889Z,2.83
2022-08-25T17:30:44.195Z,3.03
2022-08-25T17:33:12.622Z,2.67
2022-08-25T17:35:41.811Z,2.83
2022-08-25T17:38:11.608Z,3.43
2022-08-25T17:40:40.287Z,2.80
2022-08-25T17:43:09.721Z,2.97
2022-08-25T17:45:39.083Z,2.67
2022-08-25T17:48:08.751Z,2.90
2022-08-25T17:50:37.285Z,3.00
2022-08-25T17:53:07.724Z,3.13
2022-08-25T17:55:40.453Z,2.83
2022-08-25T17:58:12.585Z,3.70
2022-08-25T18:00:43.900Z,3.50
2022-08-25T18:03:12.858Z,2.57
2022-08-25T18:05:41.212Z,4.50
2022-08-25T18:08:10.653Z,3.27
2022-08-25T18:10:40.758Z,3.40
2022-08-25T18:13:09.216Z,2.93
2022-08-25T18:15:37.453Z,3.07
2022-08-25T18:18:10.699Z,4.37
2022-08-25T18:20:41.338Z,4.53
2022-08-25T18:23:11.820Z,4.10
2022-08-25T18:25:41.845Z,4.70
2022-08-25T18:28:11.660Z,4.10
2022-08-25T18:30:40.527Z,4.60
2022-08-25T18:33:08.847Z,4.23
2022-08-25T18:35:37.997Z,4.10
2022-08-25T18:38:26.662Z,5.47
2022-08-25T18:41:00.920Z,4.23
2022-08-25T18:43:31.284Z,2.97
2022-08-25T18:46:04.579Z,3.53
2022-08-25T18:48:33.918Z,4.90
2022-08-25T18:51:02.624Z,4.10
2022-08-25T18:53:37.384Z,3.57
2022-08-25T18:56:19.515Z,3.60
2022-08-25T18:58:47.852Z,4.00
2022-08-25T19:01:16.615Z,3.33
2022-08-25T19:03:44.886Z,3.70
2022-08-25T19:06:12.979Z,3.90
2022-08-25T19:08:42.092Z,3.67
2022-08-25T19:11:10.827Z,2.70
2022-08-25T19:13:42.637Z,3.80
2022-08-25T19:16:12.835Z,3.97
2022-08-25T19:18:42.713Z,3.63
2022-08-25T19:21:11.809Z,4.03
2022-08-25T19:23:40.007Z,3.03
2022-08-25T19:26:14.019Z,3.60
2022-08-25T19:28:48.908Z,2.87
2022-08-25T19:31:18.312Z,3.63
2022-08-25T19:33:46.920Z,2.80
2022-08-25T19:36:15.749Z,3.00
2022-08-25T19:38:44.771Z,3.40
2022-08-25T19:41:15.117Z,3.87
2022-08-25T19:43:56.296Z,4.67
2022-08-25T19:46:33.190Z,4.40
2022-08-25T19:49:08.028Z,4.13
2022-08-25T19:51:38.760Z,4.73
2022-08-25T19:54:09.037Z,3.50
2022-08-25T19:56:43.996Z,5.73
2022-08-25T19:59:22.955Z,3.50
2022-08-25T20:01:52.413Z,4.00
2022-08-25T20:04:20.978Z,3.63
2022-08-25T20:06:55.557Z,4.77
2022-08-25T20:09:39.045Z,4.27
2022-08-25T20:12:11.864Z,4.73
2022-08-25T20:14:41.252Z,4.10
2022-08-25T20:17:23.813Z,4.43
2022-08-25T20:19:54.415Z,3.40
2022-08-25T20:22:26.131Z,3.40
2022-08-25T20:24:59.233Z,3.77
2022-08-25T20:27:33.393Z,3.87
2022-08-25T20:30:02.661Z,3.67
2022-08-25T20:32:33.699Z,3.60
2022-08-25T20:35:02.496Z,5.07
2022-08-25T20:37:31.517Z,3.60
2022-08-25T20:40:02.386Z,4.60
2022-08-25T20:42:30.643Z,5.20
2022-08-25T20:44:59.622Z,3.97
2022-08-25T20:47:29.147Z,3.03
2022-08-25T20:50:00.391Z,3.60
2022-08-25T20:52:32.022Z,4.30
2022-08-25T20:55:00.204Z,3.83
2022-08-25T20:57:28.754Z,4.10
2022-08-25T20:59:58.343Z,2.90
2022-08-25T21:02:27.570Z,3.40
2022-08-25T21:04:57.155Z,3.73
2022-08-25T21:07:26.783Z,4.20
2022-08-25T21:09:57.591Z,3.77
2022-08-25T21:12:25.886Z,4.07
2022-08-25T21:14:55.023Z,4.07
2022-08-25T21:17:23.224Z,3.17
2022-08-25T21:19:51.782Z,3.77
2022-08-25T21:22:20.679Z,4.17
2022-08-25T21:24:51.510Z,3.07
2022-08-25T21:27:19.593Z,3.70
2022-08-25T21:29:54.951Z,3.20
2022-08-25T21:32:24.618Z,3.77
2022-08-25T21:34:54.308Z,3.77
2022-08-25T21:37:22.594Z,4.50
2022-08-25T21:39:52.994Z,4.90
2022-08-25T21:42:22.502Z,4.30
2022-08-25T21:44:51.104Z,3.60
2022-08-25T21:47:21.191Z,4.37
2022-08-25T21:49:50.084Z,3.90
2022-08-25T21:52:18.739Z,6.43
2022-08-25T21:54:46.941Z,4.03
2022-08-25T21:57:19.106Z,3.80
2022-08-25T21:59:47.394Z,3.67
2022-08-25T22:02:19.286Z,5.20
2022-08-25T22:04:52.783Z,4.20
2022-08-25T22:07:22.549Z,5.43
2022-08-25T22:09:53.520Z,4.77
2022-08-25T22:12:23.095Z,3.60
2022-08-25T22:14:53.165Z,4.00
2022-08-25T22:17:24.454Z,4.20
2022-08-25T22:19:55.853Z,4.13
2022-08-25T22:22:24.029Z,5.57
2022-08-25T22:24:55.982Z,4.83
2022-08-25T22:27:25.478Z,5.63
2022-08-25T22:29:53.525Z,5.13
2022-08-25T22:32:21.676Z,3.70
2022-08-25T22:34:50.011Z,4.37
2022-08-25T22:37:18.256Z,4.07
2022-08-25T22:39:47.182Z,6.13
2022-08-25T22:42:16.317Z,4.90
2022-08-25T22:44:45.751Z,4.43
2022-08-25T22:47:13.855Z,5.87
2022-08-25T22:49:41.925Z,4.60
2022-08-25T22:52:12.972Z,5.33
2022-08-25T22:54:42.438Z,6.10
2022-08-25T22:57:11.624Z,4.30
2022-08-25T22:59:39.765Z,3.47
2022-08-25T23:02:09.545Z,4.07
2022-08-25T23:04:41.096Z,4.33
2022-08-25T23:07:10.083Z,4.33
2022-08-25T23:09:38.387Z,3.83
2022-08-25T23:12:07.162Z,3.53
2022-08-25T23:14:36.722Z,4.63
2022-08-25T23:17:07.427Z,4.20
2022-08-25T23:19:37.420Z,4.13
2022-08-25T23:22:11.052Z,5.23
2022-08-25T23:24:42.781Z,4.00
2022-08-25T23:27:14.591Z,4.27
2022-08-25T23:29:46.103Z,3.60
2022-08-25T23:32:14.723Z,5.20
2022-08-25T23:34:46.536Z,3.23
2022-08-25T23:37:18.448Z,3.20
2022-08-25T23:39:49.894Z,4.90
2022-08-25T23:42:19.314Z,4.30
2022-08-25T23:44:48.024Z,4.47
2022-08-25T23:47:16.310Z,5.23
2022-08-25T23:49:45.805Z,4.90
2022-08-25T23:52:17.292Z,4.63
2022-08-25T23:54:46.286Z,5.17
2022-08-25T23:57:17.413Z,4.43
2022-08-25T23:59:47.022Z,5.20
